sensor_id;sensor_type;location;lat;lon;timestamp;temperature;humidity
23769;DHT22;12064;50.890;5.424;2023-04-25T00:06:45;18.50;85.00
23769;DHT22;12064;50.890;5.424;2023-04-25T00:15:36;18.50;85.10
23769;DHT22;12064;50.890;5.424;2023-04-25T00:24:28;18.50;85.10
23769;DHT22;12064;50.890;5.424;2023-04-25T00:33:19;18.50;85.20
23769;DHT22;12064;50.890;5.424;2023-04-25T00:42:10;18.50;85.30
23769;DHT22;12064;50.890;5.424;2023-04-25T00:51:01;18.40;86.20
23769;DHT22;12064;50.890;5.424;2023-04-25T00:59:52;18.40;85.50
23769;DHT22;12064;50.890;5.424;2023-04-25T01:08:44;18.40;85.50
23769;DHT22;12064;50.890;5.424;2023-04-25T01:17:35;18.40;85.50
23769;DHT22;12064;50.890;5.424;2023-04-25T01:26:26;18.40;85.90
23769;DHT22;12064;50.890;5.424;2023-04-25T01:35:17;18.40;85.80
23769;DHT22;12064;50.890;5.424;2023-04-25T01:44:08;18.40;85.80
23769;DHT22;12064;50.890;5.424;2023-04-25T01:52:58;18.40;85.80
23769;DHT22;12064;50.890;5.424;2023-04-25T02:01:49;18.30;85.80
23769;DHT22;12064;50.890;5.424;2023-04-25T02:10:40;18.30;85.90
23769;DHT22;12064;50.890;5.424;2023-04-25T02:19:31;18.30;85.90
23769;DHT22;12064;50.890;5.424;2023-04-25T02:28:21;18.30;86.00
23769;DHT22;12064;50.890;5.424;2023-04-25T02:37:12;18.30;86.20
23769;DHT22;12064;50.890;5.424;2023-04-25T02:46:03;18.30;86.20
23769;DHT22;12064;50.890;5.424;2023-04-25T02:54:54;18.30;86.30
23769;DHT22;12064;50.890;5.424;2023-04-25T03:03:44;18.30;86.20
23769;DHT22;12064;50.890;5.424;2023-04-25T03:12:35;18.20;86.20
23769;DHT22;12064;50.890;5.424;2023-04-25T03:21:26;18.20;86.20
23769;DHT22;12064;50.890;5.424;2023-04-25T03:30:16;18.20;86.50
23769;DHT22;12064;50.890;5.424;2023-04-25T03:39:07;18.20;86.50
23769;DHT22;12064;50.890;5.424;2023-04-25T03:47:59;18.20;87.00
23769;DHT22;12064;50.890;5.424;2023-04-25T03:56:49;18.20;87.10
23769;DHT22;12064;50.890;5.424;2023-04-25T04:05:40;18.20;87.20
23769;DHT22;12064;50.890;5.424;2023-04-25T04:14:32;18.20;87.40
23769;DHT22;12064;50.890;5.424;2023-04-25T04:23:23;18.20;87.40
23769;DHT22;12064;50.890;5.424;2023-04-25T04:32:14;18.10;87.40
23769;DHT22;12064;50.890;5.424;2023-04-25T04:41:05;18.10;87.70
23769;DHT22;12064;50.890;5.424;2023-04-25T04:49:59;18.20;88.00
23769;DHT22;12064;50.890;5.424;2023-04-25T04:58:50;18.20;86.40
23769;DHT22;12064;50.890;5.424;2023-04-25T05:07:41;18.10;86.20
23769;DHT22;12064;50.890;5.424;2023-04-25T05:16:32;18.10;84.90
23769;DHT22;12064;50.890;5.424;2023-04-25T05:25:22;18.00;83.20
23769;DHT22;12064;50.890;5.424;2023-04-25T05:34:13;17.90;82.10
23769;DHT22;12064;50.890;5.424;2023-04-25T05:43:04;17.90;80.60
23769;DHT22;12064;50.890;5.424;2023-04-25T05:51:55;17.90;80.20
23769;DHT22;12064;50.890;5.424;2023-04-25T06:00:45;18.00;79.70
23769;DHT22;12064;50.890;5.424;2023-04-25T06:09:36;17.80;80.00
23769;DHT22;12064;50.890;5.424;2023-04-25T06:18:29;17.90;78.60
23769;DHT22;12064;50.890;5.424;2023-04-25T06:27:19;17.90;78.50
23769;DHT22;12064;50.890;5.424;2023-04-25T06:36:10;17.90;77.90
23769;DHT22;12064;50.890;5.424;2023-04-25T06:45:01;17.90;77.10
23769;DHT22;12064;50.890;5.424;2023-04-25T06:53:52;18.00;77.80
23769;DHT22;12064;50.890;5.424;2023-04-25T07:02:42;18.00;80.20
23769;DHT22;12064;50.890;5.424;2023-04-25T07:11:34;18.00;80.30
23769;DHT22;12064;50.890;5.424;2023-04-25T07:20:26;18.00;80.80
23769;DHT22;12064;50.890;5.424;2023-04-25T07:29:18;18.00;80.90
23769;DHT22;12064;50.890;5.424;2023-04-25T07:38:08;18.00;81.10
23769;DHT22;12064;50.890;5.424;2023-04-25T07:47:00;18.10;81.10
23769;DHT22;12064;50.890;5.424;2023-04-25T07:55:51;18.20;80.80
23769;DHT22;12064;50.890;5.424;2023-04-25T08:04:41;18.30;80.80
23769;DHT22;12064;50.890;5.424;2023-04-25T08:13:32;18.30;80.90
23769;DHT22;12064;50.890;5.424;2023-04-25T08:22:23;18.20;81.00
23769;DHT22;12064;50.890;5.424;2023-04-25T08:31:13;18.20;81.20
23769;DHT22;12064;50.890;5.424;2023-04-25T08:40:05;18.20;81.20
23769;DHT22;12064;50.890;5.424;2023-04-25T08:49:02;18.30;81.00
23769;DHT22;12064;50.890;5.424;2023-04-25T08:57:54;18.30;81.00
23769;DHT22;12064;50.890;5.424;2023-04-25T09:06:45;18.30;81.30
23769;DHT22;12064;50.890;5.424;2023-04-25T09:16:05;18.20;81.30
23769;DHT22;12064;50.890;5.424;2023-04-25T09:24:56;18.30;81.50
23769;DHT22;12064;50.890;5.424;2023-04-25T09:33:46;18.30;81.40
23769;DHT22;12064;50.890;5.424;2023-04-25T09:42:41;18.30;81.20
23769;DHT22;12064;50.890;5.424;2023-04-25T09:51:32;18.60;80.60
23769;DHT22;12064;50.890;5.424;2023-04-25T10:00:22;19.10;79.20
23769;DHT22;12064;50.890;5.424;2023-04-25T10:09:14;19.10;79.10
23769;DHT22;12064;50.890;5.424;2023-04-25T10:18:06;19.00;79.60
23769;DHT22;12064;50.890;5.424;2023-04-25T10:26:57;18.90;79.90
23769;DHT22;12064;50.890;5.424;2023-04-25T10:35:49;18.80;80.10
23769;DHT22;12064;50.890;5.424;2023-04-25T10:44:40;18.70;80.60
23769;DHT22;12064;50.890;5.424;2023-04-25T10:53:33;18.80;80.70
23769;DHT22;12064;50.890;5.424;2023-04-25T11:02:27;18.80;81.10
23769;DHT22;12064;50.890;5.424;2023-04-25T11:11:19;18.90;81.00
23769;DHT22;12064;50.890;5.424;2023-04-25T11:20:10;18.90;80.90
23769;DHT22;12064;50.890;5.424;2023-04-25T11:29:01;19.10;79.50
23769;DHT22;12064;50.890;5.424;2023-04-25T11:37:53;18.80;73.50
23769;DHT22;12064;50.890;5.424;2023-04-25T11:46:44;19.00;78.00
23769;DHT22;12064;50.890;5.424;2023-04-25T11:55:35;19.00;79.60
23769;DHT22;12064;50.890;5.424;2023-04-25T12:04:30;19.00;79.90
23769;DHT22;12064;50.890;5.424;2023-04-25T12:13:24;19.00;79.60
23769;DHT22;12064;50.890;5.424;2023-04-25T12:22:20;19.00;79.60
23769;DHT22;12064;50.890;5.424;2023-04-25T12:31:11;19.00;79.80
23769;DHT22;12064;50.890;5.424;2023-04-25T12:40:03;19.00;79.90
23769;DHT22;12064;50.890;5.424;2023-04-25T12:48:54;18.90;80.30
23769;DHT22;12064;50.890;5.424;2023-04-25T12:57:45;18.90;80.30
23769;DHT22;12064;50.890;5.424;2023-04-25T13:06:36;18.90;80.50
23769;DHT22;12064;50.890;5.424;2023-04-25T13:15:28;18.90;80.10
23769;DHT22;12064;50.890;5.424;2023-04-25T13:24:19;18.90;80.50
23769;DHT22;12064;50.890;5.424;2023-04-25T13:33:10;19.00;80.40
23769;DHT22;12064;50.890;5.424;2023-04-25T13:42:01;19.00;81.00
23769;DHT22;12064;50.890;5.424;2023-04-25T13:50:52;19.00;80.00
23769;DHT22;12064;50.890;5.424;2023-04-25T13:59:43;19.10;79.90
23769;DHT22;12064;50.890;5.424;2023-04-25T14:08:33;19.00;80.00
23769;DHT22;12064;50.890;5.424;2023-04-25T14:17:24;19.00;80.10
23769;DHT22;12064;50.890;5.424;2023-04-25T14:26:15;19.10;80.00
23769;DHT22;12064;50.890;5.424;2023-04-25T14:35:06;19.00;80.00
23769;DHT22;12064;50.890;5.424;2023-04-25T14:43:57;19.00;79.90
23769;DHT22;12064;50.890;5.424;2023-04-25T14:52:50;18.90;77.60
23769;DHT22;12064;50.890;5.424;2023-04-25T15:01:43;19.00;79.00
23769;DHT22;12064;50.890;5.424;2023-04-25T15:10:34;19.10;78.90
23769;DHT22;12064;50.890;5.424;2023-04-25T15:19:25;19.10;79.10
23769;DHT22;12064;50.890;5.424;2023-04-25T15:28:16;19.10;79.50
23769;DHT22;12064;50.890;5.424;2023-04-25T15:37:06;19.10;78.70
23769;DHT22;12064;50.890;5.424;2023-04-25T15:45:58;19.10;79.50
23769;DHT22;12064;50.890;5.424;2023-04-25T15:54:49;19.20;78.60
23769;DHT22;12064;50.890;5.424;2023-04-25T16:03:39;19.20;79.10
23769;DHT22;12064;50.890;5.424;2023-04-25T16:12:31;19.20;79.30
23769;DHT22;12064;50.890;5.424;2023-04-25T16:21:22;19.20;79.30
23769;DHT22;12064;50.890;5.424;2023-04-25T16:30:12;19.30;79.30
23769;DHT22;12064;50.890;5.424;2023-04-25T16:39:03;19.30;80.10
23769;DHT22;12064;50.890;5.424;2023-04-25T16:47:57;19.10;79.10
23769;DHT22;12064;50.890;5.424;2023-04-25T16:56:48;19.20;79.30
23769;DHT22;12064;50.890;5.424;2023-04-25T17:05:38;19.20;79.30
23769;DHT22;12064;50.890;5.424;2023-04-25T17:14:30;19.20;79.20
23769;DHT22;12064;50.890;5.424;2023-04-25T17:23:22;19.20;79.40
23769;DHT22;12064;50.890;5.424;2023-04-25T17:32:13;19.10;79.10
23769;DHT22;12064;50.890;5.424;2023-04-25T17:41:04;19.10;79.80
23769;DHT22;12064;50.890;5.424;2023-04-25T17:49:55;19.20;79.70
23769;DHT22;12064;50.890;5.424;2023-04-25T17:58:46;19.20;79.90
23769;DHT22;12064;50.890;5.424;2023-04-25T18:07:37;19.10;80.10
23769;DHT22;12064;50.890;5.424;2023-04-25T18:16:28;19.10;80.10
23769;DHT22;12064;50.890;5.424;2023-04-25T18:25:18;19.10;80.10
23769;DHT22;12064;50.890;5.424;2023-04-25T18:34:09;19.00;80.00
23769;DHT22;12064;50.890;5.424;2023-04-25T18:43:01;19.00;80.20
23769;DHT22;12064;50.890;5.424;2023-04-25T18:51:52;19.00;80.20
23769;DHT22;12064;50.890;5.424;2023-04-25T19:00:45;19.00;80.20
23769;DHT22;12064;50.890;5.424;2023-04-25T19:09:36;19.00;80.20
23769;DHT22;12064;50.890;5.424;2023-04-25T19:18:27;18.90;80.20
23769;DHT22;12064;50.890;5.424;2023-04-25T19:27:18;18.90;80.30
23769;DHT22;12064;50.890;5.424;2023-04-25T19:36:08;18.90;80.30
23769;DHT22;12064;50.890;5.424;2023-04-25T19:44:59;18.90;80.30
23769;DHT22;12064;50.890;5.424;2023-04-25T19:53:52;18.90;80.40
23769;DHT22;12064;50.890;5.424;2023-04-25T20:02:44;18.80;80.50
23769;DHT22;12064;50.890;5.424;2023-04-25T20:11:35;18.80;80.50
23769;DHT22;12064;50.890;5.424;2023-04-25T20:20:26;18.80;80.50
23769;DHT22;12064;50.890;5.424;2023-04-25T20:29:16;18.80;80.60
23769;DHT22;12064;50.890;5.424;2023-04-25T20:38:10;18.80;80.70
23769;DHT22;12064;50.890;5.424;2023-04-25T20:47:01;18.70;81.30
23769;DHT22;12064;50.890;5.424;2023-04-25T20:55:52;18.70;81.00
23769;DHT22;12064;50.890;5.424;2023-04-25T21:04:42;18.70;81.20
23769;DHT22;12064;50.890;5.424;2023-04-25T21:13:33;18.70;81.10
23769;DHT22;12064;50.890;5.424;2023-04-25T21:22:24;18.60;81.20
23769;DHT22;12064;50.890;5.424;2023-04-25T21:31:15;18.70;81.20
23769;DHT22;12064;50.890;5.424;2023-04-25T21:40:07;18.60;81.20
23769;DHT22;12064;50.890;5.424;2023-04-25T21:48:58;18.60;82.30
23769;DHT22;12064;50.890;5.424;2023-04-25T21:57:49;18.60;81.40
23769;DHT22;12064;50.890;5.424;2023-04-25T22:06:40;18.50;81.50
23769;DHT22;12064;50.890;5.424;2023-04-25T22:15:31;18.50;81.70
23769;DHT22;12064;50.890;5.424;2023-04-25T22:24:22;18.50;81.70
23769;DHT22;12064;50.890;5.424;2023-04-25T22:33:17;18.50;82.00
23769;DHT22;12064;50.890;5.424;2023-04-25T22:42:08;18.50;82.00
23769;DHT22;12064;50.890;5.424;2023-04-25T22:51:03;18.50;82.10
23769;DHT22;12064;50.890;5.424;2023-04-25T22:59:55;18.50;82.40
23769;DHT22;12064;50.890;5.424;2023-04-25T23:08:46;18.40;82.30
23769;DHT22;12064;50.890;5.424;2023-04-25T23:17:38;18.40;82.60
23769;DHT22;12064;50.890;5.424;2023-04-25T23:26:28;18.40;82.70
23769;DHT22;12064;50.890;5.424;2023-04-25T23:35:19;18.30;82.70
23769;DHT22;12064;50.890;5.424;2023-04-25T23:44:10;18.30;82.90
23769;DHT22;12064;50.890;5.424;2023-04-25T23:53:01;18.30;82.90
